sensor_id;sensor_type;location;lat;lon;timestamp;temperature;humidity
70336;SHT31;57756;47.408;18.940;2023-06-26T00:01:42;19.83;78.07
70336;SHT31;57756;47.408;18.940;2023-06-26T00:04:07;19.85;78.75
70336;SHT31;57756;47.408;18.940;2023-06-26T00:06:33;19.77;79.22
70336;SHT31;57756;47.408;18.940;2023-06-26T00:08:58;19.71;78.68
70336;SHT31;57756;47.408;18.940;2023-06-26T00:11:24;19.67;79.15
70336;SHT31;57756;47.408;18.940;2023-06-26T00:13:50;19.67;79.67
70336;SHT31;57756;47.408;18.940;2023-06-26T00:16:15;19.58;80.52
70336;SHT31;57756;47.408;18.940;2023-06-26T00:18:41;19.47;81.33
70336;SHT31;57756;47.408;18.940;2023-06-26T00:21:06;19.37;81.67
70336;SHT31;57756;47.408;18.940;2023-06-26T00:23:32;19.34;80.73
70336;SHT31;57756;47.408;18.940;2023-06-26T00:26:03;19.38;80.76
70336;SHT31;57756;47.408;18.940;2023-06-26T00:28:29;19.40;80.59
70336;SHT31;57756;47.408;18.940;2023-06-26T00:30:54;19.34;79.95
70336;SHT31;57756;47.408;18.940;2023-06-26T00:33:19;19.31;80.16
70336;SHT31;57756;47.408;18.940;2023-06-26T00:35:45;19.31;79.90
70336;SHT31;57756;47.408;18.940;2023-06-26T00:38:10;19.26;80.29
70336;SHT31;57756;47.408;18.940;2023-06-26T00:40:36;19.16;81.35
70336;SHT31;57756;47.408;18.940;2023-06-26T00:43:01;19.11;81.74
70336;SHT31;57756;47.408;18.940;2023-06-26T00:45:27;19.09;81.94
70336;SHT31;57756;47.408;18.940;2023-06-26T00:47:53;19.06;80.80
70336;SHT31;57756;47.408;18.940;2023-06-26T00:50:19;19.04;81.22
70336;SHT31;57756;47.408;18.940;2023-06-26T00:52:44;19.06;79.88
70336;SHT31;57756;47.408;18.940;2023-06-26T00:55:10;19.14;80.35
70336;SHT31;57756;47.408;18.940;2023-06-26T00:57:36;19.14;79.88
70336;SHT31;57756;47.408;18.940;2023-06-26T01:00:02;19.09;80.69
70336;SHT31;57756;47.408;18.940;2023-06-26T01:02:29;19.06;80.85
70336;SHT31;57756;47.408;18.940;2023-06-26T01:04:58;19.04;81.05
70336;SHT31;57756;47.408;18.940;2023-06-26T01:07:24;18.91;82.08
70336;SHT31;57756;47.408;18.940;2023-06-26T01:09:50;18.86;82.78
70336;SHT31;57756;47.408;18.940;2023-06-26T01:12:16;18.79;82.79
70336;SHT31;57756;47.408;18.940;2023-06-26T01:14:41;18.79;81.31
70336;SHT31;57756;47.408;18.940;2023-06-26T01:17:07;18.79;81.34
70336;SHT31;57756;47.408;18.940;2023-06-26T01:19:37;18.83;81.20
70336;SHT31;57756;47.408;18.940;2023-06-26T01:22:14;18.79;81.46
70336;SHT31;57756;47.408;18.940;2023-06-26T01:24:47;18.77;81.60
70336;SHT31;57756;47.408;18.940;2023-06-26T01:27:21;18.79;81.65
70336;SHT31;57756;47.408;18.940;2023-06-26T01:29:48;18.76;81.58
70336;SHT31;57756;47.408;18.940;2023-06-26T01:32:15;18.72;82.01
70336;SHT31;57756;47.408;18.940;2023-06-26T01:34:41;18.73;81.32
70336;SHT31;57756;47.408;18.940;2023-06-26T01:37:07;18.73;81.12
70336;SHT31;57756;47.408;18.940;2023-06-26T01:39:32;18.71;81.51
70336;SHT31;57756;47.408;18.940;2023-06-26T01:41:58;18.71;81.30
70336;SHT31;57756;47.408;18.940;2023-06-26T01:44:29;18.73;81.34
70336;SHT31;57756;47.408;18.940;2023-06-26T01:47:04;18.75;81.06
70336;SHT31;57756;47.408;18.940;2023-06-26T01:52:27;18.75;81.14
70336;SHT31;57756;47.408;18.940;2023-06-26T01:55:09;18.79;80.29
70336;SHT31;57756;47.408;18.940;2023-06-26T01:57:36;18.79;80.41
70336;SHT31;57756;47.408;18.940;2023-06-26T02:00:02;18.77;81.20
70336;SHT31;57756;47.408;18.940;2023-06-26T02:02:29;18.68;82.11
70336;SHT31;57756;47.408;18.940;2023-06-26T02:04:55;18.59;82.20
70336;SHT31;57756;47.408;18.940;2023-06-26T02:07:20;18.54;83.43
70336;SHT31;57756;47.408;18.940;2023-06-26T02:09:46;18.49;83.22
70336;SHT31;57756;47.408;18.940;2023-06-26T02:12:11;18.47;83.43
70336;SHT31;57756;47.408;18.940;2023-06-26T02:14:37;18.37;83.95
70336;SHT31;57756;47.408;18.940;2023-06-26T02:17:02;18.33;84.51
70336;SHT31;57756;47.408;18.940;2023-06-26T02:19:27;18.24;85.48
70336;SHT31;57756;47.408;18.940;2023-06-26T02:21:54;18.17;85.71
70336;SHT31;57756;47.408;18.940;2023-06-26T02:24:19;18.14;85.16
70336;SHT31;57756;47.408;18.940;2023-06-26T02:26:45;18.06;86.00
70336;SHT31;57756;47.408;18.940;2023-06-26T02:29:11;18.01;86.26
70336;SHT31;57756;47.408;18.940;2023-06-26T02:31:37;17.93;86.30
70336;SHT31;57756;47.408;18.940;2023-06-26T02:34:02;17.91;86.76
70336;SHT31;57756;47.408;18.940;2023-06-26T02:36:28;17.87;87.02
70336;SHT31;57756;47.408;18.940;2023-06-26T02:38:53;17.82;87.73
70336;SHT31;57756;47.408;18.940;2023-06-26T02:41:19;17.82;87.19
70336;SHT31;57756;47.408;18.940;2023-06-26T02:43:44;17.72;87.11
70336;SHT31;57756;47.408;18.940;2023-06-26T02:46:10;17.63;87.77
70336;SHT31;57756;47.408;18.940;2023-06-26T02:48:35;17.65;88.31
70336;SHT31;57756;47.408;18.940;2023-06-26T02:51:01;17.65;87.88
70336;SHT31;57756;47.408;18.940;2023-06-26T02:53:26;17.65;88.34
70336;SHT31;57756;47.408;18.940;2023-06-26T02:55:52;17.59;88.22
70336;SHT31;57756;47.408;18.940;2023-06-26T02:58:17;17.61;87.93
70336;SHT31;57756;47.408;18.940;2023-06-26T03:00:43;17.51;88.29
70336;SHT31;57756;47.408;18.940;2023-06-26T03:03:09;17.43;88.16
70336;SHT31;57756;47.408;18.940;2023-06-26T03:05:34;17.45;87.87
70336;SHT31;57756;47.408;18.940;2023-06-26T03:08:00;17.42;87.48
70336;SHT31;57756;47.408;18.940;2023-06-26T03:10:26;17.38;87.51
70336;SHT31;57756;47.408;18.940;2023-06-26T03:12:51;17.38;87.25
70336;SHT31;57756;47.408;18.940;2023-06-26T03:15:16;17.41;87.16
70336;SHT31;57756;47.408;18.940;2023-06-26T03:17:42;17.42;86.78
70336;SHT31;57756;47.408;18.940;2023-06-26T03:20:08;17.43;87.68
70336;SHT31;57756;47.408;18.940;2023-06-26T03:22:34;17.46;87.96
70336;SHT31;57756;47.408;18.940;2023-06-26T03:24:59;17.51;87.72
70336;SHT31;57756;47.408;18.940;2023-06-26T03:27:25;17.43;88.02
70336;SHT31;57756;47.408;18.940;2023-06-26T03:29:52;17.39;87.84
70336;SHT31;57756;47.408;18.940;2023-06-26T03:32:17;17.41;88.72
70336;SHT31;57756;47.408;18.940;2023-06-26T03:34:43;17.43;88.69
70336;SHT31;57756;47.408;18.940;2023-06-26T03:37:08;17.45;88.60
70336;SHT31;57756;47.408;18.940;2023-06-26T03:39:34;17.43;88.11
70336;SHT31;57756;47.408;18.940;2023-06-26T03:41:59;17.49;87.38
70336;SHT31;57756;47.408;18.940;2023-06-26T03:44:27;17.56;87.10
70336;SHT31;57756;47.408;18.940;2023-06-26T03:46:52;17.59;87.34
70336;SHT31;57756;47.408;18.940;2023-06-26T03:49:18;17.62;87.90
70336;SHT31;57756;47.408;18.940;2023-06-26T03:51:44;17.65;88.05
70336;SHT31;57756;47.408;18.940;2023-06-26T03:54:09;17.68;88.39
70336;SHT31;57756;47.408;18.940;2023-06-26T03:56:35;17.75;87.06
70336;SHT31;57756;47.408;18.940;2023-06-26T03:59:01;17.75;87.97
70336;SHT31;57756;47.408;18.940;2023-06-26T04:01:26;17.83;87.51
70336;SHT31;57756;47.408;18.940;2023-06-26T04:03:53;17.91;88.35
70336;SHT31;57756;47.408;18.940;2023-06-26T04:06:18;17.99;88.24
70336;SHT31;57756;47.408;18.940;2023-06-26T04:08:44;18.06;87.53
70336;SHT31;57756;47.408;18.940;2023-06-26T04:11:09;18.17;87.93
70336;SHT31;57756;47.408;18.940;2023-06-26T04:13:35;18.27;87.95
70336;SHT31;57756;47.408;18.940;2023-06-26T04:16:00;18.41;87.04
70336;SHT31;57756;47.408;18.940;2023-06-26T04:18:26;18.55;87.10
70336;SHT31;57756;47.408;18.940;2023-06-26T04:21:12;18.73;85.87
70336;SHT31;57756;47.408;18.940;2023-06-26T04:23:39;18.92;84.72
70336;SHT31;57756;47.408;18.940;2023-06-26T04:26:05;19.17;86.47
70336;SHT31;57756;47.408;18.940;2023-06-26T04:28:32;19.32;86.30
70336;SHT31;57756;47.408;18.940;2023-06-26T04:30:58;19.59;86.55
70336;SHT31;57756;47.408;18.940;2023-06-26T04:33:24;19.77;85.62
70336;SHT31;57756;47.408;18.940;2023-06-26T04:35:51;19.95;84.96
70336;SHT31;57756;47.408;18.940;2023-06-26T04:38:16;20.20;83.40
70336;SHT31;57756;47.408;18.940;2023-06-26T04:40:41;20.41;83.71
70336;SHT31;57756;47.408;18.940;2023-06-26T04:43:07;20.68;83.18
70336;SHT31;57756;47.408;18.940;2023-06-26T04:45:32;20.92;82.51
70336;SHT31;57756;47.408;18.940;2023-06-26T04:47:58;21.15;81.57
70336;SHT31;57756;47.408;18.940;2023-06-26T04:50:26;21.40;80.88
70336;SHT31;57756;47.408;18.940;2023-06-26T04:52:54;21.58;80.52
70336;SHT31;57756;47.408;18.940;2023-06-26T04:55:20;21.90;77.38
70336;SHT31;57756;47.408;18.940;2023-06-26T04:57:47;22.15;77.88
70336;SHT31;57756;47.408;18.940;2023-06-26T05:00:13;22.43;77.28
70336;SHT31;57756;47.408;18.940;2023-06-26T05:02:39;22.66;76.82
70336;SHT31;57756;47.408;18.940;2023-06-26T05:05:04;22.91;76.91
70336;SHT31;57756;47.408;18.940;2023-06-26T05:07:30;23.17;76.29
70336;SHT31;57756;47.408;18.940;2023-06-26T05:09:55;23.37;74.86
70336;SHT31;57756;47.408;18.940;2023-06-26T05:12:21;23.62;74.82
70336;SHT31;57756;47.408;18.940;2023-06-26T05:14:46;23.86;73.06
70336;SHT31;57756;47.408;18.940;2023-06-26T05:17:14;24.17;72.29
70336;SHT31;57756;47.408;18.940;2023-06-26T05:19:39;24.30;67.33
70336;SHT31;57756;47.408;18.940;2023-06-26T05:22:06;24.58;68.43
70336;SHT31;57756;47.408;18.940;2023-06-26T05:24:38;24.62;68.11
70336;SHT31;57756;47.408;18.940;2023-06-26T05:27:05;24.93;68.65
70336;SHT31;57756;47.408;18.940;2023-06-26T05:29:31;25.16;67.29
70336;SHT31;57756;47.408;18.940;2023-06-26T05:31:58;25.43;64.63
70336;SHT31;57756;47.408;18.940;2023-06-26T05:34:24;25.64;65.14
70336;SHT31;57756;47.408;18.940;2023-06-26T05:36:51;25.64;64.99
70336;SHT31;57756;47.408;18.940;2023-06-26T05:39:17;25.78;65.12
70336;SHT31;57756;47.408;18.940;2023-06-26T05:41:44;25.89;63.61
70336;SHT31;57756;47.408;18.940;2023-06-26T05:44:10;26.12;65.45
70336;SHT31;57756;47.408;18.940;2023-06-26T05:46:35;26.25;62.05
70336;SHT31;57756;47.408;18.940;2023-06-26T05:49:01;26.26;62.58
70336;SHT31;57756;47.408;18.940;2023-06-26T05:51:28;26.60;62.43
70336;SHT31;57756;47.408;18.940;2023-06-26T05:53:54;26.37;61.61
70336;SHT31;57756;47.408;18.940;2023-06-26T05:56:19;26.67;61.66
70336;SHT31;57756;47.408;18.940;2023-06-26T05:58:45;26.94;63.15
70336;SHT31;57756;47.408;18.940;2023-06-26T06:01:11;27.19;61.86
70336;SHT31;57756;47.408;18.940;2023-06-26T06:03:38;27.23;60.90
70336;SHT31;57756;47.408;18.940;2023-06-26T06:06:03;27.36;61.63
70336;SHT31;57756;47.408;18.940;2023-06-26T06:08:29;27.69;61.27
70336;SHT31;57756;47.408;18.940;2023-06-26T06:10:54;27.70;61.66
70336;SHT31;57756;47.408;18.940;2023-06-26T06:13:20;27.49;59.41
70336;SHT31;57756;47.408;18.940;2023-06-26T06:15:45;27.47;58.71
70336;SHT31;57756;47.408;18.940;2023-06-26T06:18:11;27.47;58.57
70336;SHT31;57756;47.408;18.940;2023-06-26T06:20:36;27.79;59.58
70336;SHT31;57756;47.408;18.940;2023-06-26T06:23:02;27.77;59.10
70336;SHT31;57756;47.408;18.940;2023-06-26T06:25:27;27.91;59.96
70336;SHT31;57756;47.408;18.940;2023-06-26T06:27:53;28.18;58.24
70336;SHT31;57756;47.408;18.940;2023-06-26T06:30:18;28.05;59.74
70336;SHT31;57756;47.408;18.940;2023-06-26T06:32:44;28.31;58.44
70336;SHT31;57756;47.408;18.940;2023-06-26T06:35:10;28.56;59.24
70336;SHT31;57756;47.408;18.940;2023-06-26T06:37:39;28.65;58.82
70336;SHT31;57756;47.408;18.940;2023-06-26T06:40:09;28.89;57.99
70336;SHT31;57756;47.408;18.940;2023-06-26T06:42:35;28.73;57.81
70336;SHT31;57756;47.408;18.940;2023-06-26T06:45:04;29.21;57.64
70336;SHT31;57756;47.408;18.940;2023-06-26T06:47:32;29.01;56.38
70336;SHT31;57756;47.408;18.940;2023-06-26T06:49:58;29.39;56.33
70336;SHT31;57756;47.408;18.940;2023-06-26T06:52:24;29.41;57.78
70336;SHT31;57756;47.408;18.940;2023-06-26T06:54:54;29.70;56.98
70336;SHT31;57756;47.408;18.940;2023-06-26T06:57:21;29.99;55.44
70336;SHT31;57756;47.408;18.940;2023-06-26T06:59:47;30.23;55.45
70336;SHT31;57756;47.408;18.940;2023-06-26T07:02:14;30.21;55.09
70336;SHT31;57756;47.408;18.940;2023-06-26T07:04:40;29.97;55.85
70336;SHT31;57756;47.408;18.940;2023-06-26T07:07:06;30.06;54.86
70336;SHT31;57756;47.408;18.940;2023-06-26T07:09:31;30.25;57.81
70336;SHT31;57756;47.408;18.940;2023-06-26T07:11:57;29.93;56.17
70336;SHT31;57756;47.408;18.940;2023-06-26T07:14:23;30.38;55.07
70336;SHT31;57756;47.408;18.940;2023-06-26T07:16:48;30.25;55.24
70336;SHT31;57756;47.408;18.940;2023-06-26T07:19:14;29.89;54.14
70336;SHT31;57756;47.408;18.940;2023-06-26T07:21:39;30.10;55.31
70336;SHT31;57756;47.408;18.940;2023-06-26T07:24:06;30.55;55.35
70336;SHT31;57756;47.408;18.940;2023-06-26T07:26:32;30.81;53.84
70336;SHT31;57756;47.408;18.940;2023-06-26T07:28:57;31.09;54.78
70336;SHT31;57756;47.408;18.940;2023-06-26T07:31:22;30.91;54.76
70336;SHT31;57756;47.408;18.940;2023-06-26T07:33:48;30.83;53.96
70336;SHT31;57756;47.408;18.940;2023-06-26T07:36:13;31.57;53.31
70336;SHT31;57756;47.408;18.940;2023-06-26T07:38:39;31.67;51.26
70336;SHT31;57756;47.408;18.940;2023-06-26T07:41:04;31.41;51.84
70336;SHT31;57756;47.408;18.940;2023-06-26T07:43:30;31.33;52.87
70336;SHT31;57756;47.408;18.940;2023-06-26T07:45:56;31.57;52.76
70336;SHT31;57756;47.408;18.940;2023-06-26T07:48:24;31.47;51.84
70336;SHT31;57756;47.408;18.940;2023-06-26T07:50:50;31.47;51.16
70336;SHT31;57756;47.408;18.940;2023-06-26T07:53:15;31.73;53.37
70336;SHT31;57756;47.408;18.940;2023-06-26T07:55:41;31.73;51.98
70336;SHT31;57756;47.408;18.940;2023-06-26T07:58:07;31.80;52.40
70336;SHT31;57756;47.408;18.940;2023-06-26T08:00:33;32.05;51.35
70336;SHT31;57756;47.408;18.940;2023-06-26T08:02:58;32.26;50.63
70336;SHT31;57756;47.408;18.940;2023-06-26T08:05:24;32.57;50.71
70336;SHT31;57756;47.408;18.940;2023-06-26T08:07:49;31.94;49.20
70336;SHT31;57756;47.408;18.940;2023-06-26T08:10:14;32.63;49.74
70336;SHT31;57756;47.408;18.940;2023-06-26T08:12:40;32.57;51.22
70336;SHT31;57756;47.408;18.940;2023-06-26T08:15:08;32.50;49.23
70336;SHT31;57756;47.408;18.940;2023-06-26T08:17:35;32.32;50.47
70336;SHT31;57756;47.408;18.940;2023-06-26T08:20:01;32.49;50.94
70336;SHT31;57756;47.408;18.940;2023-06-26T08:22:27;32.32;49.72
70336;SHT31;57756;47.408;18.940;2023-06-26T08:24:52;32.37;50.75
70336;SHT31;57756;47.408;18.940;2023-06-26T08:27:18;32.69;49.73
70336;SHT31;57756;47.408;18.940;2023-06-26T08:29:43;32.86;49.28
70336;SHT31;57756;47.408;18.940;2023-06-26T08:32:08;32.96;48.09
70336;SHT31;57756;47.408;18.940;2023-06-26T08:34:34;33.24;48.41
70336;SHT31;57756;47.408;18.940;2023-06-26T08:36:59;33.12;52.08
70336;SHT31;57756;47.408;18.940;2023-06-26T08:39:25;33.49;50.35
70336;SHT31;57756;47.408;18.940;2023-06-26T08:41:51;33.83;49.00
70336;SHT31;57756;47.408;18.940;2023-06-26T08:44:16;33.99;49.33
70336;SHT31;57756;47.408;18.940;2023-06-26T08:46:42;33.79;47.32
70336;SHT31;57756;47.408;18.940;2023-06-26T08:49:17;33.93;47.75
70336;SHT31;57756;47.408;18.940;2023-06-26T08:51:52;34.18;48.74
70336;SHT31;57756;47.408;18.940;2023-06-26T08:54:27;34.43;47.78
70336;SHT31;57756;47.408;18.940;2023-06-26T08:56:54;33.49;48.89
70336;SHT31;57756;47.408;18.940;2023-06-26T08:59:21;32.81;50.05
70336;SHT31;57756;47.408;18.940;2023-06-26T09:01:47;32.76;52.08
70336;SHT31;57756;47.408;18.940;2023-06-26T09:04:13;32.44;49.92
70336;SHT31;57756;47.408;18.940;2023-06-26T09:06:39;31.84;51.18
70336;SHT31;57756;47.408;18.940;2023-06-26T09:09:04;31.65;54.25
70336;SHT31;57756;47.408;18.940;2023-06-26T09:11:31;31.82;52.38
70336;SHT31;57756;47.408;18.940;2023-06-26T09:13:56;32.77;49.45
70336;SHT31;57756;47.408;18.940;2023-06-26T09:16:26;33.52;50.54
70336;SHT31;57756;47.408;18.940;2023-06-26T09:18:52;34.29;45.92
70336;SHT31;57756;47.408;18.940;2023-06-26T09:21:18;33.94;46.91
70336;SHT31;57756;47.408;18.940;2023-06-26T09:23:43;33.28;48.32
70336;SHT31;57756;47.408;18.940;2023-06-26T09:26:09;32.98;47.80
70336;SHT31;57756;47.408;18.940;2023-06-26T09:28:35;34.28;46.17
70336;SHT31;57756;47.408;18.940;2023-06-26T09:31:05;34.86;47.39
70336;SHT31;57756;47.408;18.940;2023-06-26T09:33:38;35.00;47.78
70336;SHT31;57756;47.408;18.940;2023-06-26T09:36:07;35.29;47.49
70336;SHT31;57756;47.408;18.940;2023-06-26T09:38:35;35.47;48.20
70336;SHT31;57756;47.408;18.940;2023-06-26T09:41:01;35.84;46.07
70336;SHT31;57756;47.408;18.940;2023-06-26T09:43:27;36.09;45.37
70336;SHT31;57756;47.408;18.940;2023-06-26T09:45:52;36.60;46.78
70336;SHT31;57756;47.408;18.940;2023-06-26T09:48:19;36.09;45.59
70336;SHT31;57756;47.408;18.940;2023-06-26T09:50:46;36.12;46.63
70336;SHT31;57756;47.408;18.940;2023-06-26T09:53:12;35.98;45.05
70336;SHT31;57756;47.408;18.940;2023-06-26T09:55:41;36.94;46.95
70336;SHT31;57756;47.408;18.940;2023-06-26T09:58:10;37.01;45.21
70336;SHT31;57756;47.408;18.940;2023-06-26T10:00:40;37.43;42.50
70336;SHT31;57756;47.408;18.940;2023-06-26T10:03:05;37.45;44.73
70336;SHT31;57756;47.408;18.940;2023-06-26T10:05:30;37.18;42.19
70336;SHT31;57756;47.408;18.940;2023-06-26T10:07:56;37.62;45.54
70336;SHT31;57756;47.408;18.940;2023-06-26T10:10:23;38.01;43.19
70336;SHT31;57756;47.408;18.940;2023-06-26T10:12:51;37.25;44.06
70336;SHT31;57756;47.408;18.940;2023-06-26T10:15:21;37.69;41.79
70336;SHT31;57756;47.408;18.940;2023-06-26T10:17:49;38.21;42.67
70336;SHT31;57756;47.408;18.940;2023-06-26T10:20:15;38.03;43.78
70336;SHT31;57756;47.408;18.940;2023-06-26T10:22:44;37.90;43.09
70336;SHT31;57756;47.408;18.940;2023-06-26T10:25:11;37.19;44.06
70336;SHT31;57756;47.408;18.940;2023-06-26T10:27:44;36.86;43.74
70336;SHT31;57756;47.408;18.940;2023-06-26T10:30:22;37.92;44.30
70336;SHT31;57756;47.408;18.940;2023-06-26T10:32:49;38.37;44.74
70336;SHT31;57756;47.408;18.940;2023-06-26T10:35:15;36.76;45.08
70336;SHT31;57756;47.408;18.940;2023-06-26T10:37:46;36.25;46.09
70336;SHT31;57756;47.408;18.940;2023-06-26T10:40:13;35.80;43.33
70336;SHT31;57756;47.408;18.940;2023-06-26T10:42:40;36.86;42.88
70336;SHT31;57756;47.408;18.940;2023-06-26T10:45:14;37.36;44.72
70336;SHT31;57756;47.408;18.940;2023-06-26T10:47:40;37.41;42.92
70336;SHT31;57756;47.408;18.940;2023-06-26T10:50:28;37.34;44.67
70336;SHT31;57756;47.408;18.940;2023-06-26T10:56:05;36.59;44.88
70336;SHT31;57756;47.408;18.940;2023-06-26T11:03:39;37.31;45.74
70336;SHT31;57756;47.408;18.940;2023-06-26T11:08:49;37.45;41.66
70336;SHT31;57756;47.408;18.940;2023-06-26T11:11:16;37.45;43.06
70336;SHT31;57756;47.408;18.940;2023-06-26T11:13:42;36.56;46.42
70336;SHT31;57756;47.408;18.940;2023-06-26T11:16:08;37.22;44.29
70336;SHT31;57756;47.408;18.940;2023-06-26T11:18:33;37.46;44.36
70336;SHT31;57756;47.408;18.940;2023-06-26T11:21:10;38.01;42.98
70336;SHT31;57756;47.408;18.940;2023-06-26T11:23:39;37.92;42.67
70336;SHT31;57756;47.408;18.940;2023-06-26T11:26:20;38.40;43.87
70336;SHT31;57756;47.408;18.940;2023-06-26T11:28:55;38.32;41.61
70336;SHT31;57756;47.408;18.940;2023-06-26T11:31:31;38.47;42.38
70336;SHT31;57756;47.408;18.940;2023-06-26T11:33:58;38.30;41.42
70336;SHT31;57756;47.408;18.940;2023-06-26T11:36:25;38.01;42.86
70336;SHT31;57756;47.408;18.940;2023-06-26T11:41:20;38.19;43.09
70336;SHT31;57756;47.408;18.940;2023-06-26T11:43:46;38.34;42.93
70336;SHT31;57756;47.408;18.940;2023-06-26T11:46:12;38.31;42.36
70336;SHT31;57756;47.408;18.940;2023-06-26T11:48:38;37.68;42.25
70336;SHT31;57756;47.408;18.940;2023-06-26T11:51:05;37.11;42.71
70336;SHT31;57756;47.408;18.940;2023-06-26T11:53:31;37.02;42.64
70336;SHT31;57756;47.408;18.940;2023-06-26T11:55:56;36.76;44.18
70336;SHT31;57756;47.408;18.940;2023-06-26T11:58:22;37.15;44.44
70336;SHT31;57756;47.408;18.940;2023-06-26T12:00:48;37.13;44.31
70336;SHT31;57756;47.408;18.940;2023-06-26T12:03:14;37.46;43.33
70336;SHT31;57756;47.408;18.940;2023-06-26T12:05:39;37.38;41.81
70336;SHT31;57756;47.408;18.940;2023-06-26T12:08:06;37.41;43.15
70336;SHT31;57756;47.408;18.940;2023-06-26T12:10:33;37.89;43.34
70336;SHT31;57756;47.408;18.940;2023-06-26T12:12:58;38.07;43.19
70336;SHT31;57756;47.408;18.940;2023-06-26T12:15:27;37.70;42.65
70336;SHT31;57756;47.408;18.940;2023-06-26T12:17:53;37.42;43.66
70336;SHT31;57756;47.408;18.940;2023-06-26T12:20:21;37.10;44.30
70336;SHT31;57756;47.408;18.940;2023-06-26T12:22:48;37.01;45.95
70336;SHT31;57756;47.408;18.940;2023-06-26T12:25:14;35.92;44.30
70336;SHT31;57756;47.408;18.940;2023-06-26T12:27:39;35.04;45.26
70336;SHT31;57756;47.408;18.940;2023-06-26T12:30:05;34.33;46.09
70336;SHT31;57756;47.408;18.940;2023-06-26T12:32:31;34.29;46.84
70336;SHT31;57756;47.408;18.940;2023-06-26T12:34:57;34.88;45.75
70336;SHT31;57756;47.408;18.940;2023-06-26T12:37:23;35.00;45.69
70336;SHT31;57756;47.408;18.940;2023-06-26T12:39:56;34.99;44.51
70336;SHT31;57756;47.408;18.940;2023-06-26T12:42:27;35.74;42.55
70336;SHT31;57756;47.408;18.940;2023-06-26T12:44:53;35.61;45.69
70336;SHT31;57756;47.408;18.940;2023-06-26T12:47:24;35.70;45.06
70336;SHT31;57756;47.408;18.940;2023-06-26T12:49:51;35.67;43.75
70336;SHT31;57756;47.408;18.940;2023-06-26T12:52:17;35.80;43.95
70336;SHT31;57756;47.408;18.940;2023-06-26T12:54:46;35.55;44.13
70336;SHT31;57756;47.408;18.940;2023-06-26T12:57:13;36.02;44.45
70336;SHT31;57756;47.408;18.940;2023-06-26T12:59:41;35.58;46.25
70336;SHT31;57756;47.408;18.940;2023-06-26T13:02:08;35.23;45.28
70336;SHT31;57756;47.408;18.940;2023-06-26T13:04:33;35.77;44.30
70336;SHT31;57756;47.408;18.940;2023-06-26T13:06:59;35.49;45.12
70336;SHT31;57756;47.408;18.940;2023-06-26T13:09:25;35.58;43.07
70336;SHT31;57756;47.408;18.940;2023-06-26T13:11:52;35.60;45.44
70336;SHT31;57756;47.408;18.940;2023-06-26T13:14:18;35.27;44.64
70336;SHT31;57756;47.408;18.940;2023-06-26T13:16:43;35.70;44.07
70336;SHT31;57756;47.408;18.940;2023-06-26T13:19:09;35.30;44.42
70336;SHT31;57756;47.408;18.940;2023-06-26T13:21:35;35.23;44.87
70336;SHT31;57756;47.408;18.940;2023-06-26T13:24:01;35.17;45.39
70336;SHT31;57756;47.408;18.940;2023-06-26T13:26:28;35.27;45.40
70336;SHT31;57756;47.408;18.940;2023-06-26T13:28:54;35.47;46.51
70336;SHT31;57756;47.408;18.940;2023-06-26T13:31:19;35.36;43.68
70336;SHT31;57756;47.408;18.940;2023-06-26T13:33:46;35.09;45.62
70336;SHT31;57756;47.408;18.940;2023-06-26T13:36:14;34.95;45.39
70336;SHT31;57756;47.408;18.940;2023-06-26T13:38:40;35.03;46.10
70336;SHT31;57756;47.408;18.940;2023-06-26T13:41:05;34.43;45.29
70336;SHT31;57756;47.408;18.940;2023-06-26T13:43:31;34.52;45.07
70336;SHT31;57756;47.408;18.940;2023-06-26T13:45:56;34.31;46.00
70336;SHT31;57756;47.408;18.940;2023-06-26T13:48:22;34.48;46.78
70336;SHT31;57756;47.408;18.940;2023-06-26T13:50:49;34.41;45.44
70336;SHT31;57756;47.408;18.940;2023-06-26T13:53:15;34.23;46.90
70336;SHT31;57756;47.408;18.940;2023-06-26T13:55:40;33.83;46.21
70336;SHT31;57756;47.408;18.940;2023-06-26T13:58:06;33.62;46.77
70336;SHT31;57756;47.408;18.940;2023-06-26T14:00:33;33.34;47.66
70336;SHT31;57756;47.408;18.940;2023-06-26T14:03:05;32.88;48.91
70336;SHT31;57756;47.408;18.940;2023-06-26T14:05:36;33.15;47.88
70336;SHT31;57756;47.408;18.940;2023-06-26T14:08:03;32.86;47.53
70336;SHT31;57756;47.408;18.940;2023-06-26T14:10:29;33.00;48.57
70336;SHT31;57756;47.408;18.940;2023-06-26T14:12:55;32.80;48.67
70336;SHT31;57756;47.408;18.940;2023-06-26T14:15:21;33.12;48.89
70336;SHT31;57756;47.408;18.940;2023-06-26T14:17:46;33.04;47.80
70336;SHT31;57756;47.408;18.940;2023-06-26T14:20:15;33.05;48.94
70336;SHT31;57756;47.408;18.940;2023-06-26T14:22:42;32.87;47.53
70336;SHT31;57756;47.408;18.940;2023-06-26T14:25:09;32.86;47.25
70336;SHT31;57756;47.408;18.940;2023-06-26T14:27:35;32.91;48.41
70336;SHT31;57756;47.408;18.940;2023-06-26T14:30:01;32.50;49.20
70336;SHT31;57756;47.408;18.940;2023-06-26T14:32:27;32.33;48.38
70336;SHT31;57756;47.408;18.940;2023-06-26T14:34:53;32.40;49.77
70336;SHT31;57756;47.408;18.940;2023-06-26T14:37:18;32.49;48.06
70336;SHT31;57756;47.408;18.940;2023-06-26T14:39:44;32.53;49.66
70336;SHT31;57756;47.408;18.940;2023-06-26T14:42:10;32.60;47.52
70336;SHT31;57756;47.408;18.940;2023-06-26T14:44:36;32.39;49.27
70336;SHT31;57756;47.408;18.940;2023-06-26T14:47:01;32.31;49.89
70336;SHT31;57756;47.408;18.940;2023-06-26T14:49:27;32.15;48.73
70336;SHT31;57756;47.408;18.940;2023-06-26T14:51:52;32.16;47.06
70336;SHT31;57756;47.408;18.940;2023-06-26T14:54:18;32.23;48.97
70336;SHT31;57756;47.408;18.940;2023-06-26T14:56:43;32.16;48.07
70336;SHT31;57756;47.408;18.940;2023-06-26T14:59:10;32.18;48.24
70336;SHT31;57756;47.408;18.940;2023-06-26T15:01:36;32.18;48.30
70336;SHT31;57756;47.408;18.940;2023-06-26T15:04:02;32.02;47.52
70336;SHT31;57756;47.408;18.940;2023-06-26T15:06:27;31.82;49.09
70336;SHT31;57756;47.408;18.940;2023-06-26T15:08:53;31.81;48.95
70336;SHT31;57756;47.408;18.940;2023-06-26T15:11:18;31.73;48.65
70336;SHT31;57756;47.408;18.940;2023-06-26T15:13:44;31.57;47.68
70336;SHT31;57756;47.408;18.940;2023-06-26T15:16:09;31.65;48.72
70336;SHT31;57756;47.408;18.940;2023-06-26T15:18:35;31.54;48.69
70336;SHT31;57756;47.408;18.940;2023-06-26T15:21:00;31.44;48.53
70336;SHT31;57756;47.408;18.940;2023-06-26T15:23:28;31.33;48.79
70336;SHT31;57756;47.408;18.940;2023-06-26T15:25:54;31.34;48.65
70336;SHT31;57756;47.408;18.940;2023-06-26T15:28:19;31.26;49.22